Time;durP1;ratioP1;P1;durP2;ratioP2;P2;SDS_P1;SDS_P2;PMS_P1;PMS_P2;Temp;Humidity;BMP_temperature;BMP_pressure;BME280_temperature;BME280_humidity;BME280_pressure;Samples;Min_cycle;Max_cycle;Signal;HPM_P1;HPM_P2
2019/09/12 00:02:18;;;;;;;4.3;3;;;;;;;18.9;56.17578;1013.561;;;;
2019/09/12 00:04:43;;;;;;;6.9;3.1;;;;;;;18.91;55.99023;1013.529;;;;
2019/09/12 00:07:08;;;;;;;4;2.9;;;;;;;18.91;56.2002;1013.489;;;;
2019/09/12 00:09:33;;;;;;;5.9;2.8;;;;;;;18.82;56.64355;1013.536;;;;
2019/09/12 00:11:59;;;;;;;4.8;2.8;;;;;;;18.93;56.38965;1013.527;;;;
2019/09/12 00:14:24;;;;;;;5.5;3.3;;;;;;;18.85;56.82227;1013.53;;;;
2019/09/12 00:16:49;;;;;;;4.1;2.9;;;;;;;18.87;56.70801;1013.53;;;;
2019/09/12 00:19:14;;;;;;;5.1;3;;;;;;;18.92;56.69141;1013.535;;;;
2019/09/12 00:21:39;;;;;;;4.7;2.9;;;;;;;18.85;57.17285;1013.609;;;;
2019/09/12 00:24:04;;;;;;;4.3;2.9;;;;;;;18.92;56.86719;1013.582;;;;
2019/09/12 00:26:30;;;;;;;4.6;2.9;;;;;;;18.87;57.15137;1013.581;;;;
2019/09/12 00:28:55;;;;;;;6.2;3.3;;;;;;;18.81;57.51758;1013.555;;;;
2019/09/12 00:31:20;;;;;;;5.4;3.2;;;;;;;18.69;58.00293;1013.555;;;;
2019/09/12 00:33:45;;;;;;;3.9;3.1;;;;;;;18.77;57.78027;1013.569;;;;
2019/09/12 00:36:43;;;;;;;6;3.1;;;;;;;18.75;57.94141;1013.512;;;;
2019/09/12 00:38:35;;;;;;;5.3;3.1;;;;;;;18.73;58.09082;1013.525;;;;
2019/09/12 00:41:01;;;;;;;4.4;3.1;;;;;;;18.75;58.10449;1013.608;;;;
2019/09/12 00:43:26;;;;;;;6.5;3.2;;;;;;;18.77;58.12988;1013.596;;;;
2019/09/12 00:45:51;;;;;;;7;3.1;;;;;;;18.73;58.28906;1013.592;;;;
2019/09/12 00:48:16;;;;;;;4.7;3.2;;;;;;;18.63;58.80078;1013.563;;;;
2019/09/12 00:50:41;;;;;;;4.2;2.9;;;;;;;18.7;58.6582;1013.541;;;;
2019/09/12 00:53:06;;;;;;;4.4;3.1;;;;;;;18.59;59.13281;1013.555;;;;
2019/09/12 00:55:31;;;;;;;4.7;3;;;;;;;18.68;58.91309;1013.536;;;;
2019/09/12 00:57:56;;;;;;;6.9;3.1;;;;;;;18.67;58.92188;1013.571;;;;
2019/09/12 01:00:22;;;;;;;5.7;3.5;;;;;;;18.63;59.18555;1013.59;;;;
2019/09/12 01:02:47;;;;;;;5.2;3.1;;;;;;;18.69;59.07617;1013.638;;;;
2019/09/12 01:05:12;;;;;;;4.2;3;;;;;;;18.61;59.50781;1013.577;;;;
2019/09/12 01:07:37;;;;;;;5.9;3.2;;;;;;;18.57;59.66797;1013.604;;;;
2019/09/12 01:10:02;;;;;;;4.6;3.2;;;;;;;18.6;59.49512;1013.633;;;;
2019/09/12 01:12:27;;;;;;;6.2;3.2;;;;;;;18.62;59.5791;1013.552;;;;
2019/09/12 01:14:53;;;;;;;5;3.4;;;;;;;18.52;59.97461;1013.556;;;;
2019/09/12 01:17:18;;;;;;;4.3;3;;;;;;;18.55;59.84082;1013.561;;;;
2019/09/12 01:19:43;;;;;;;6;3.3;;;;;;;18.53;60.18555;1013.583;;;;
2019/09/12 01:22:08;;;;;;;4.8;3.2;;;;;;;18.49;60.34375;1013.594;;;;
2019/09/12 01:24:33;;;;;;;3.9;3.1;;;;;;;18.38;60.69043;1013.58;;;;
2019/09/12 01:26:58;;;;;;;4.6;3.2;;;;;;;18.46;60.57324;1013.603;;;;
2019/09/12 01:29:24;;;;;;;4.6;3.1;;;;;;;18.36;60.9209;1013.613;;;;
2019/09/12 01:31:49;;;;;;;4.4;3;;;;;;;18.29;61.27148;1013.659;;;;
2019/09/12 01:34:14;;;;;;;4.5;3.4;;;;;;;18.27;61.43164;1013.687;;;;
2019/09/12 01:36:39;;;;;;;4.2;3.2;;;;;;;18.31;61.50781;1013.665;;;;
2019/09/12 01:39:04;;;;;;;7.5;3.3;;;;;;;18.32;61.50879;1013.64;;;;
2019/09/12 01:41:29;;;;;;;4.7;3.2;;;;;;;18.33;61.54492;1013.618;;;;
2019/09/12 01:43:54;;;;;;;6.2;3.2;;;;;;;18.25;61.89648;1013.65;;;;
2019/09/12 01:46:20;;;;;;;6.3;3.5;;;;;;;18.37;61.45703;1013.661;;;;
2019/09/12 01:48:45;;;;;;;4.1;3;;;;;;;18.25;62.04785;1013.727;;;;
2019/09/12 01:51:10;;;;;;;6.4;3.7;;;;;;;18.26;62.04785;1013.734;;;;
2019/09/12 01:53:35;;;;;;;5.1;3.4;;;;;;;18.27;62.23633;1013.753;;;;
2019/09/12 01:56:00;;;;;;;5.5;3.4;;;;;;;18.3;62.07715;1013.766;;;;
2019/09/12 01:58:25;;;;;;;6.8;3.4;;;;;;;18.3;62.18262;1013.807;;;;
2019/09/12 02:00:50;;;;;;;6.9;3.4;;;;;;;18.29;62.36719;1013.807;;;;
2019/09/12 02:03:15;;;;;;;5.2;3.4;;;;;;;18.3;62.43848;1013.801;;;;
2019/09/12 02:05:42;;;;;;;5.6;3.5;;;;;;;18.27;62.59766;1013.838;;;;
2019/09/12 02:08:06;;;;;;;4.6;3.3;;;;;;;18.28;62.57617;1013.794;;;;
2019/09/12 02:10:31;;;;;;;6.6;3.6;;;;;;;18.27;62.69141;1013.829;;;;
2019/09/12 02:12:56;;;;;;;6.2;3.3;;;;;;;18.3;62.58984;1013.848;;;;
2019/09/12 02:15:21;;;;;;;6.1;3.5;;;;;;;18.39;62.3584;1013.838;;;;
2019/09/12 02:17:46;;;;;;;6.3;3.5;;;;;;;18.33;62.61816;1013.857;;;;
2019/09/12 02:20:11;;;;;;;5.3;3.3;;;;;;;18.35;62.48145;1013.888;;;;
2019/09/12 02:22:37;;;;;;;5.8;3.3;;;;;;;18.31;62.6377;1013.892;;;;
2019/09/12 02:25:02;;;;;;;5.1;3.3;;;;;;;18.36;62.41211;1013.904;;;;
2019/09/12 02:27:27;;;;;;;5.6;3.4;;;;;;;18.37;62.29688;1013.917;;;;
2019/09/12 02:29:52;;;;;;;6.8;3.7;;;;;;;18.33;62.39551;1013.927;;;;
2019/09/12 02:32:17;;;;;;;5.5;3.2;;;;;;;18.4;62.00977;1013.953;;;;
2019/09/12 02:34:42;;;;;;;5.6;3.3;;;;;;;18.48;61.71777;1013.96;;;;
2019/09/12 02:37:07;;;;;;;5.5;3.4;;;;;;;18.37;62.09863;1013.958;;;;
2019/09/12 02:39:32;;;;;;;5.6;3.3;;;;;;;18.36;62.14355;1013.98;;;;
2019/09/12 02:41:57;;;;;;;4.8;3.4;;;;;;;18.35;62.09668;1013.974;;;;
2019/09/12 02:44:23;;;;;;;4.9;3.2;;;;;;;18.38;61.80859;1014.004;;;;
2019/09/12 02:46:48;;;;;;;5.9;3.5;;;;;;;18.41;61.64941;1014.005;;;;
2019/09/12 02:49:13;;;;;;;6.7;3.3;;;;;;;18.39;61.68066;1013.992;;;;
2019/09/12 02:51:38;;;;;;;5.6;3.7;;;;;;;18.32;61.7998;1013.985;;;;
2019/09/12 02:54:03;;;;;;;5.2;3.4;;;;;;;18.35;61.73535;1013.972;;;;
2019/09/12 02:56:28;;;;;;;4.4;3.1;;;;;;;18.33;61.81348;1013.916;;;;
2019/09/12 02:58:53;;;;;;;4.8;3.2;;;;;;;18.37;61.71484;1013.929;;;;
2019/09/12 03:01:19;;;;;;;5.8;3.3;;;;;;;18.28;62.02832;1013.925;;;;
2019/09/12 03:03:44;;;;;;;5.3;3.1;;;;;;;18.34;61.81543;1013.906;;;;
2019/09/12 03:06:09;;;;;;;5.6;3.1;;;;;;;18.31;61.89063;1013.882;;;;
2019/09/12 03:08:34;;;;;;;5;3.4;;;;;;;18.34;61.94238;1013.854;;;;
2019/09/12 03:10:59;;;;;;;6;3.3;;;;;;;18.25;62.19824;1013.86;;;;
2019/09/12 03:13:24;;;;;;;4.3;3.4;;;;;;;18.32;62.10352;1013.878;;;;
2019/09/12 03:15:49;;;;;;;4.7;3.1;;;;;;;18.25;62.19824;1013.929;;;;
2019/09/12 03:18:15;;;;;;;4.4;3;;;;;;;18.3;62.19336;1013.861;;;;
2019/09/12 03:20:40;;;;;;;7.5;3.3;;;;;;;18.23;62.52148;1013.885;;;;
2019/09/12 03:23:05;;;;;;;5.7;3.5;;;;;;;18.21;62.58887;1013.885;;;;
2019/09/12 03:25:30;;;;;;;4.6;3.2;;;;;;;18.28;62.35352;1013.872;;;;
2019/09/12 03:27:55;;;;;;;5;3.9;;;;;;;18.21;62.51855;1013.945;;;;
2019/09/12 03:30:21;;;;;;;5.7;3.1;;;;;;;18.14;63.02148;1013.992;;;;
2019/09/12 03:32:46;;;;;;;5.7;3.6;;;;;;;18.21;62.77441;1013.964;;;;
2019/09/12 03:35:11;;;;;;;5.3;3.6;;;;;;;18.26;62.61816;1013.976;;;;
2019/09/12 03:37:36;;;;;;;5.6;3.5;;;;;;;18.15;63.10547;1014.029;;;;
2019/09/12 03:40:01;;;;;;;5.5;3.2;;;;;;;18.07;63.39648;1013.987;;;;
2019/09/12 03:42:26;;;;;;;5.4;3.5;;;;;;;18.08;63.38477;1014.01;;;;
2019/09/12 03:44:52;;;;;;;6.3;3.6;;;;;;;18;63.79395;1014;;;;
2019/09/12 03:47:17;;;;;;;6.6;3.5;;;;;;;17.95;63.83301;1013.999;;;;
2019/09/12 03:49:42;;;;;;;6.1;3.7;;;;;;;17.85;64.52832;1013.986;;;;
2019/09/12 03:52:07;;;;;;;6.3;3.3;;;;;;;17.91;64.1416;1013.959;;;;
2019/09/12 03:54:32;;;;;;;5.8;3.4;;;;;;;17.86;64.32031;1013.969;;;;
2019/09/12 03:56:57;;;;;;;6.3;3.6;;;;;;;17.75;64.68848;1013.976;;;;
2019/09/12 03:59:22;;;;;;;5.2;3.4;;;;;;;17.74;64.84961;1013.991;;;;
2019/09/12 04:02:28;;;;;;;6.9;3.7;;;;;;;17.71;64.97363;1013.997;;;;
2019/09/12 04:04:53;;;;;;;7.2;3.7;;;;;;;17.7;65.11133;1014.015;;;;
2019/09/12 04:07:18;;;;;;;5.3;3.4;;;;;;;17.58;65.44238;1014.033;;;;
2019/09/12 04:09:43;;;;;;;6.2;3.7;;;;;;;17.59;65.50195;1014.055;;;;
2019/09/12 04:12:08;;;;;;;5.9;3.6;;;;;;;17.59;65.54883;1014.086;;;;
2019/09/12 04:14:33;;;;;;;6.4;3.8;;;;;;;17.67;65.32813;1014.149;;;;
2019/09/12 04:16:58;;;;;;;5.7;3.5;;;;;;;17.57;65.65039;1014.119;;;;
2019/09/12 04:19:23;;;;;;;5.7;3.5;;;;;;;17.46;66.19141;1014.157;;;;
2019/09/12 04:21:48;;;;;;;6.1;3.9;;;;;;;17.42;66.47852;1014.226;;;;
2019/09/12 04:24:13;;;;;;;4.7;3.5;;;;;;;17.55;66.10156;1014.22;;;;
2019/09/12 04:26:39;;;;;;;5.3;3.5;;;;;;;17.44;66.42285;1014.249;;;;
2019/09/12 04:29:04;;;;;;;7.3;3.6;;;;;;;17.44;66.42188;1014.263;;;;
2019/09/12 04:31:29;;;;;;;5;3.5;;;;;;;17.43;66.49023;1014.28;;;;
2019/09/12 04:33:54;;;;;;;8.3;3.4;;;;;;;17.41;66.61328;1014.275;;;;
2019/09/12 04:36:19;;;;;;;4.9;3.5;;;;;;;17.36;66.76953;1014.306;;;;
2019/09/12 04:38:44;;;;;;;6.7;3.4;;;;;;;17.25;67.20703;1014.351;;;;
2019/09/12 04:41:09;;;;;;;5.5;3.3;;;;;;;17.26;67.13867;1014.438;;;;
2019/09/12 04:43:34;;;;;;;7.3;3.7;;;;;;;17.27;67.31543;1014.476;;;;
2019/09/12 04:46:00;;;;;;;6.4;3.9;;;;;;;17.32;66.97461;1014.521;;;;
2019/09/12 04:48:25;;;;;;;6.9;3.8;;;;;;;17.41;66.71973;1014.47;;;;
2019/09/12 04:50:50;;;;;;;5.9;3.5;;;;;;;17.27;66.99023;1014.556;;;;
2019/09/12 04:53:15;;;;;;;4.7;3.5;;;;;;;17.29;66.88965;1014.619;;;;
2019/09/12 04:55:40;;;;;;;6.2;3.1;;;;;;;17.3;66.79688;1014.573;;;;
2019/09/12 04:58:05;;;;;;;5.5;3.4;;;;;;;17.38;66.51758;1014.638;;;;
2019/09/12 05:00:30;;;;;;;6.7;3.5;;;;;;;17.3;66.70313;1014.63;;;;
2019/09/12 05:02:55;;;;;;;4.3;3.2;;;;;;;17.36;66.5498;1014.682;;;;
2019/09/12 05:05:20;;;;;;;5.9;3.5;;;;;;;17.35;66.45605;1014.681;;;;
2019/09/12 05:07:45;;;;;;;8.6;3.6;;;;;;;17.35;66.16504;1014.698;;;;
2019/09/12 05:10:11;;;;;;;5.9;3.6;;;;;;;17.35;66.03711;1014.74;;;;
2019/09/12 05:12:36;;;;;;;5.1;3.4;;;;;;;17.39;66.07715;1014.786;;;;
2019/09/12 05:15:01;;;;;;;5.6;3.3;;;;;;;17.38;65.9834;1014.747;;;;
2019/09/12 05:17:26;;;;;;;6.5;3.3;;;;;;;17.4;65.68359;1014.802;;;;
2019/09/12 05:19:51;;;;;;;4.6;3;;;;;;;17.27;66.1875;1014.813;;;;
2019/09/12 05:22:16;;;;;;;4.3;3;;;;;;;17.33;65.96289;1014.846;;;;
2019/09/12 05:24:41;;;;;;;3.9;3.1;;;;;;;17.44;65.46875;1014.848;;;;
2019/09/12 05:27:06;;;;;;;6.1;3.3;;;;;;;17.42;65.51172;1014.896;;;;
2019/09/12 05:29:32;;;;;;;5.2;3;;;;;;;17.39;65.7168;1014.966;;;;
2019/09/12 05:31:56;;;;;;;5.7;2.9;;;;;;;17.41;65.27734;1015.051;;;;
2019/09/12 05:34:22;;;;;;;5;2.9;;;;;;;17.38;65.16895;1015.063;;;;
2019/09/12 05:36:47;;;;;;;4.1;2.8;;;;;;;17.41;65.10352;1015.125;;;;
2019/09/12 05:39:12;;;;;;;6;3.3;;;;;;;17.46;64.78516;1015.119;;;;
2019/09/12 05:41:37;;;;;;;4.2;2.9;;;;;;;17.43;65.03613;1015.098;;;;
2019/09/12 05:44:02;;;;;;;7.9;3.2;;;;;;;17.59;64.47852;1015.126;;;;
2019/09/12 05:46:27;;;;;;;5.1;2.9;;;;;;;17.63;64.24023;1015.105;;;;
2019/09/12 05:48:52;;;;;;;5.3;2.9;;;;;;;17.61;64.12012;1015.162;;;;
2019/09/12 05:51:17;;;;;;;5.8;3.2;;;;;;;17.71;64.03125;1015.206;;;;
2019/09/12 05:53:42;;;;;;;5.2;2.8;;;;;;;17.75;63.79102;1015.222;;;;
2019/09/12 05:56:07;;;;;;;8.7;3;;;;;;;17.81;63.42871;1015.247;;;;
2019/09/12 05:58:33;;;;;;;5.4;3;;;;;;;17.83;63.22168;1015.284;;;;
2019/09/12 06:00:58;;;;;;;6.5;2.8;;;;;;;17.91;62.58203;1015.276;;;;
2019/09/12 06:03:23;;;;;;;6.2;2.9;;;;;;;17.86;62.7373;1015.388;;;;
2019/09/12 06:05:48;;;;;;;5.8;3.1;;;;;;;17.91;62.54492;1015.372;;;;
2019/09/12 06:08:13;;;;;;;6.2;2.8;;;;;;;17.83;62.89551;1015.343;;;;
2019/09/12 06:10:38;;;;;;;4.6;2.6;;;;;;;17.94;62.31738;1015.269;;;;
2019/09/12 06:13:03;;;;;;;7.2;2.7;;;;;;;18.11;61.85254;1015.275;;;;
2019/09/12 06:15:28;;;;;;;6.9;3.2;;;;;;;18.03;62.09766;1015.317;;;;
2019/09/12 06:17:53;;;;;;;6.8;2.8;;;;;;;17.87;62.54004;1015.403;;;;
2019/09/12 06:20:18;;;;;;;4.7;2.7;;;;;;;18;62.13867;1015.33;;;;
2019/09/12 06:22:43;;;;;;;5.1;2.7;;;;;;;18.02;62.01465;1015.323;;;;
2019/09/12 06:25:20;;;;;;;5.1;2.8;;;;;;;18.21;61.28418;1015.357;;;;
2019/09/12 06:27:46;;;;;;;5.7;2.5;;;;;;;18.17;61.68652;1015.394;;;;
2019/09/12 06:30:11;;;;;;;5.6;2.9;;;;;;;18.19;61.5957;1015.395;;;;
2019/09/12 06:32:36;;;;;;;5.5;2.8;;;;;;;18.49;60.51855;1015.435;;;;
2019/09/12 06:35:01;;;;;;;3.8;2.4;;;;;;;18.48;60.64551;1015.391;;;;
2019/09/12 06:37:26;;;;;;;6.3;2.7;;;;;;;18.53;60.20898;1015.358;;;;
2019/09/12 06:39:51;;;;;;;6.3;2.5;;;;;;;18.8;59.28906;1015.354;;;;
2019/09/12 06:42:16;;;;;;;5.1;3.4;;;;;;;18.64;59.67676;1015.428;;;;
2019/09/12 06:44:42;;;;;;;3.2;2.2;;;;;;;18.62;59.85938;1015.533;;;;
2019/09/12 06:47:06;;;;;;;5.5;2.7;;;;;;;18.6;59.68164;1015.506;;;;
2019/09/12 06:49:32;;;;;;;5.2;2.7;;;;;;;18.74;59.50293;1015.495;;;;
2019/09/12 06:51:57;;;;;;;5.8;2.6;;;;;;;18.88;59.04395;1015.548;;;;
2019/09/12 06:54:22;;;;;;;4.5;2.5;;;;;;;18.88;59.16113;1015.629;;;;
2019/09/12 06:56:47;;;;;;;5.7;2.6;;;;;;;18.74;59.64355;1015.649;;;;
2019/09/12 06:59:12;;;;;;;5.1;2.5;;;;;;;19.17;58.45215;1015.753;;;;
2019/09/12 07:01:37;;;;;;;6.5;2.5;;;;;;;19.05;58.61035;1015.707;;;;
2019/09/12 07:04:02;;;;;;;4.8;2.5;;;;;;;19.04;58.21387;1015.714;;;;
2019/09/12 07:06:28;;;;;;;6.8;2.4;;;;;;;19.15;58.02832;1015.724;;;;
2019/09/12 07:08:53;;;;;;;4.1;2.3;;;;;;;19.16;57.50488;1015.778;;;;
2019/09/12 07:11:18;;;;;;;5.9;2.5;;;;;;;19.02;58.07031;1015.827;;;;
2019/09/12 07:13:43;;;;;;;4.9;2.6;;;;;;;19.18;57.82324;1015.91;;;;
2019/09/12 07:16:08;;;;;;;5.8;2.3;;;;;;;19.24;57.23535;1015.92;;;;
2019/09/12 07:18:33;;;;;;;5.2;2.5;;;;;;;19.32;57.06934;1015.952;;;;
2019/09/12 07:20:58;;;;;;;4;2.3;;;;;;;19.39;57.14941;1016.024;;;;
2019/09/12 07:23:23;;;;;;;7;2.5;;;;;;;19.45;57.05078;1016.105;;;;
2019/09/12 07:25:48;;;;;;;5.5;2.3;;;;;;;19.58;56.50781;1016.139;;;;
2019/09/12 07:28:14;;;;;;;4.8;2.4;;;;;;;19.44;57.00293;1016.149;;;;
2019/09/12 07:30:39;;;;;;;3.4;2.2;;;;;;;19.4;56.84668;1016.159;;;;
2019/09/12 07:33:04;;;;;;;5.8;2.3;;;;;;;19.59;56.71875;1016.201;;;;
2019/09/12 07:35:29;;;;;;;6.6;2.6;;;;;;;19.59;56.06445;1016.234;;;;
2019/09/12 07:37:54;;;;;;;5.5;2.6;;;;;;;19.78;55.46875;1016.264;;;;
2019/09/12 07:40:19;;;;;;;6.7;2.5;;;;;;;20.06;54.47559;1016.264;;;;
2019/09/12 07:42:44;;;;;;;4.4;2.2;;;;;;;20.37;53.5293;1016.357;;;;
2019/09/12 07:45:11;;;;;;;4.3;2.2;;;;;;;20.31;53.69727;1016.393;;;;
2019/09/12 07:47:34;;;;;;;3.7;2.3;;;;;;;20.61;52.55176;1016.48;;;;
2019/09/12 07:50:00;;;;;;;6.5;2.1;;;;;;;20.52;52.81055;1016.497;;;;
2019/09/12 07:52:25;;;;;;;3.3;2;;;;;;;20.69;51.77539;1016.568;;;;
2019/09/12 07:54:50;;;;;;;3.3;2.1;;;;;;;20.5;51.92871;1016.565;;;;
2019/09/12 07:57:15;;;;;;;3.9;1.9;;;;;;;20.58;51.58691;1016.597;;;;
2019/09/12 07:59:40;;;;;;;4.5;2;;;;;;;20.08;52.54688;1016.642;;;;
2019/09/12 08:02:05;;;;;;;4.4;2.1;;;;;;;20.12;52.61133;1016.665;;;;
2019/09/12 08:04:30;;;;;;;6.9;2.4;;;;;;;20.18;52.61621;1016.669;;;;
2019/09/12 08:06:55;;;;;;;3.4;1.9;;;;;;;20.35;51.57227;1016.67;;;;
2019/09/12 08:09:20;;;;;;;3.9;1.9;;;;;;;20.47;51.73828;1016.701;;;;
2019/09/12 08:11:46;;;;;;;5.5;3.1;;;;;;;20.9;51.0957;1016.804;;;;
2019/09/12 08:14:11;;;;;;;4.1;2.2;;;;;;;20.84;51.03125;1016.785;;;;
2019/09/12 08:16:36;;;;;;;4.4;2.1;;;;;;;20.59;51.00195;1016.808;;;;
2019/09/12 08:19:02;;;;;;;7;1.9;;;;;;;20.92;50.5127;1016.868;;;;
2019/09/12 08:21:27;;;;;;;4.6;1.9;;;;;;;21.12;49.64453;1016.806;;;;
2019/09/12 08:23:52;;;;;;;4.4;2.1;;;;;;;20.95;49.90625;1016.801;;;;
2019/09/12 08:26:17;;;;;;;7.3;2.4;;;;;;;21.25;49.00195;1016.833;;;;
2019/09/12 08:28:42;;;;;;;4.2;2;;;;;;;21.05;49.66016;1016.852;;;;
2019/09/12 08:31:07;;;;;;;4.8;2;;;;;;;21.25;49.36621;1016.853;;;;
2019/09/12 08:33:33;;;;;;;4.4;1.9;;;;;;;21.63;48.1875;1016.892;;;;
2019/09/12 08:35:58;;;;;;;3.1;1.7;;;;;;;21.89;47.1582;1016.867;;;;
2019/09/12 08:38:23;;;;;;;3.3;1.9;;;;;;;21.96;46.91797;1016.874;;;;
2019/09/12 08:40:48;;;;;;;5.2;2.1;;;;;;;22.01;46.94727;1016.893;;;;
2019/09/12 08:43:13;;;;;;;3.6;1.8;;;;;;;21.75;47.62305;1016.917;;;;
2019/09/12 08:45:38;;;;;;;2.4;1.6;;;;;;;21.68;47.33594;1016.895;;;;
2019/09/12 08:48:04;;;;;;;5.3;1.8;;;;;;;22.09;46.6748;1016.919;;;;
2019/09/12 08:50:29;;;;;;;4.9;1.9;;;;;;;21.77;47.13281;1016.931;;;;
2019/09/12 08:52:54;;;;;;;9.9;2;;;;;;;21.67;47.05273;1016.975;;;;
2019/09/12 08:55:19;;;;;;;4.1;1.6;;;;;;;21.5;47.97363;1016.931;;;;
2019/09/12 08:57:44;;;;;;;3.3;2.1;;;;;;;21.8;47.41797;1017.015;;;;
2019/09/12 09:00:09;;;;;;;3;2;;;;;;;22.26;46.1748;1017.039;;;;
2019/09/12 09:02:34;;;;;;;5.8;1.9;;;;;;;22.32;46.25098;1017.036;;;;
2019/09/12 09:04:59;;;;;;;3.5;1.9;;;;;;;21.85;47.49316;1016.965;;;;
2019/09/12 09:07:25;;;;;;;4.9;1.9;;;;;;;21.91;46.78516;1016.997;;;;
2019/09/12 09:09:50;;;;;;;3.9;1.8;;;;;;;21.77;46.83984;1016.962;;;;
2019/09/12 09:12:15;;;;;;;3.9;1.6;;;;;;;22.27;45.11719;1017.11;;;;
2019/09/12 09:14:40;;;;;;;4.1;1.9;;;;;;;22.5;44.29297;1017.141;;;;
2019/09/12 09:17:05;;;;;;;3.1;1.6;;;;;;;22.97;43.20996;1017.195;;;;
2019/09/12 09:19:30;;;;;;;4.4;1.6;;;;;;;22.83;43.30176;1017.146;;;;
2019/09/12 09:21:55;;;;;;;4.7;1.4;;;;;;;22.89;43.21289;1017.181;;;;
2019/09/12 09:24:21;;;;;;;3.5;1.6;;;;;;;22.46;44.52441;1017.209;;;;
2019/09/12 09:26:46;;;;;;;3.5;1.6;;;;;;;22.46;44.66602;1017.258;;;;
2019/09/12 09:29:11;;;;;;;4.9;1.6;;;;;;;22.67;43.40332;1017.243;;;;
2019/09/12 09:31:36;;;;;;;3.3;1.8;;;;;;;22.78;43.59082;1017.285;;;;
2019/09/12 09:34:01;;;;;;;5.6;1.9;;;;;;;22.32;44.37012;1017.267;;;;
2019/09/12 09:36:26;;;;;;;2.9;1.4;;;;;;;22.47;44.18457;1017.318;;;;
2019/09/12 09:38:51;;;;;;;2.3;1.4;;;;;;;22.1;44.42969;1017.286;;;;
2019/09/12 09:41:16;;;;;;;5.1;1.6;;;;;;;22.34;44.13672;1017.299;;;;
2019/09/12 09:43:41;;;;;;;4;1.6;;;;;;;22.39;43.94043;1017.336;;;;
2019/09/12 09:46:06;;;;;;;3.8;1.6;;;;;;;22.54;43.66211;1017.357;;;;
2019/09/12 09:48:31;;;;;;;3.7;1.6;;;;;;;22.68;43.2998;1017.352;;;;
2019/09/12 09:50:56;;;;;;;4.4;1.5;;;;;;;22.31;44.41504;1017.341;;;;
2019/09/12 09:53:22;;;;;;;3.1;1.6;;;;;;;22.44;44.16992;1017.37;;;;
2019/09/12 09:55:47;;;;;;;3.8;1.8;;;;;;;22.57;44.36035;1017.421;;;;
2019/09/12 09:58:12;;;;;;;3.9;1.9;;;;;;;22.83;43.72559;1017.393;;;;
2019/09/12 10:00:37;;;;;;;3.6;1.5;;;;;;;22.95;43.14844;1017.418;;;;
2019/09/12 10:03:02;;;;;;;3.2;1.5;;;;;;;23.36;42.48145;1017.416;;;;
2019/09/12 10:05:27;;;;;;;3.3;1.4;;;;;;;23.39;42.625;1017.364;;;;
2019/09/12 10:07:54;;;;;;;6.9;1.9;;;;;;;23.33;42.85547;1017.404;;;;
2019/09/12 10:10:19;;;;;;;6.6;3.1;;;;;;;23.71;42.07813;1017.325;;;;
2019/09/12 10:12:44;;;;;;;3.5;1.7;;;;;;;23.82;41.78223;1017.341;;;;
2019/09/12 10:15:09;;;;;;;4.1;1.8;;;;;;;23.42;41.75586;1017.36;;;;
2019/09/12 10:17:34;;;;;;;4.4;1.6;;;;;;;23.16;42.06152;1017.329;;;;
2019/09/12 10:19:59;;;;;;;4.7;1.6;;;;;;;23.21;42.14844;1017.294;;;;
2019/09/12 10:22:24;;;;;;;4.5;1.7;;;;;;;23.56;42.1582;1017.201;;;;
2019/09/12 10:24:49;;;;;;;3.7;1.6;;;;;;;23.77;41.69434;1017.174;;;;
2019/09/12 10:27:14;;;;;;;4.6;1.4;;;;;;;24.12;41.04199;1017.107;;;;
2019/09/12 10:29:40;;;;;;;4.6;1.5;;;;;;;24.34;40.70801;1017.115;;;;
2019/09/12 10:32:05;;;;;;;2.5;1.3;;;;;;;24.57;40.41016;1017.088;;;;
2019/09/12 10:34:30;;;;;;;2.8;1.3;;;;;;;24.6;41.5127;1017.061;;;;
2019/09/12 10:36:55;;;;;;;3.6;1.4;;;;;;;24.99;41.3125;1017.089;;;;
2019/09/12 10:39:20;;;;;;;1.7;1.4;;;;;;;25.79;39.69141;1017.046;;;;
2019/09/12 10:41:45;;;;;;;3.7;1.5;;;;;;;25.48;40.78906;1017.014;;;;
2019/09/12 10:44:10;;;;;;;3.6;1.4;;;;;;;25.81;40.19043;1016.962;;;;
2019/09/12 10:46:35;;;;;;;5.7;1.5;;;;;;;25.89;39.91309;1016.969;;;;
2019/09/12 10:49:00;;;;;;;2.6;1.3;;;;;;;25.61;41.22754;1016.944;;;;
2019/09/12 10:51:25;;;;;;;3.6;1.1;;;;;;;25.65;41.26563;1016.913;;;;
2019/09/12 10:53:51;;;;;;;5.6;1.3;;;;;;;25.37;42.10547;1016.895;;;;
2019/09/12 10:56:16;;;;;;;4.2;2.3;;;;;;;24.98;43.07324;1016.855;;;;
2019/09/12 10:58:41;;;;;;;1.8;1.1;;;;;;;25.6;42.31543;1016.846;;;;
2019/09/12 11:01:06;;;;;;;3;1.3;;;;;;;25.61;42.00879;1016.824;;;;
2019/09/12 11:03:31;;;;;;;2.7;1.3;;;;;;;25.82;41.96875;1016.813;;;;
2019/09/12 11:05:56;;;;;;;2.2;1.2;;;;;;;25.65;42.22559;1016.795;;;;
2019/09/12 11:08:21;;;;;;;2.4;1.2;;;;;;;25.38;43.89355;1016.795;;;;
2019/09/12 11:10:46;;;;;;;2.7;1.1;;;;;;;25.66;42.4873;1016.83;;;;
2019/09/12 11:13:12;;;;;;;2.9;1.2;;;;;;;25.55;43.62598;1016.785;;;;
2019/09/12 11:15:37;;;;;;;1.9;1;;;;;;;25.82;42.60938;1016.851;;;;
2019/09/12 11:18:02;;;;;;;2.2;1;;;;;;;25.91;42.03711;1016.827;;;;
2019/09/12 11:20:27;;;;;;;2.3;0.9;;;;;;;26.21;41.73242;1016.873;;;;
2019/09/12 11:22:52;;;;;;;1.8;0.9;;;;;;;26.13;41.98633;1016.772;;;;
2019/09/12 11:25:17;;;;;;;3;2.3;;;;;;;26.1;42.04297;1016.781;;;;
2019/09/12 11:27:42;;;;;;;2.8;1.1;;;;;;;26.38;41.32227;1016.781;;;;
2019/09/12 11:30:07;;;;;;;2.3;1;;;;;;;26.18;42.10938;1016.812;;;;
2019/09/12 11:32:32;;;;;;;3.4;1.1;;;;;;;25.84;42.6123;1016.8;;;;
2019/09/12 11:34:58;;;;;;;1.2;1;;;;;;;25.88;42.28223;1016.805;;;;
2019/09/12 11:37:23;;;;;;;2.2;1;;;;;;;25.85;42.59961;1016.768;;;;
2019/09/12 11:39:48;;;;;;;1.3;0.9;;;;;;;25.74;42.69727;1016.766;;;;
2019/09/12 11:42:13;;;;;;;3.8;1.2;;;;;;;25.94;42.4541;1016.74;;;;
2019/09/12 11:44:38;;;;;;;2.4;1.1;;;;;;;26.34;41.68555;1016.743;;;;
2019/09/12 11:47:03;;;;;;;1.8;1;;;;;;;26.27;41.88086;1016.689;;;;
2019/09/12 11:49:28;;;;;;;4.2;1.2;;;;;;;26.3;41.77637;1016.716;;;;
2019/09/12 11:51:53;;;;;;;1.7;1;;;;;;;25.72;42.65918;1016.67;;;;
2019/09/12 11:54:19;;;;;;;2.9;0.9;;;;;;;25.82;42.62109;1016.701;;;;
2019/09/12 11:56:44;;;;;;;1.8;1.2;;;;;;;25.67;43.02148;1016.708;;;;
2019/09/12 11:59:09;;;;;;;5.7;1.3;;;;;;;25.33;43.53418;1016.681;;;;
2019/09/12 12:01:34;;;;;;;3;1.7;;;;;;;25.57;43.21289;1016.695;;;;
2019/09/12 12:03:59;;;;;;;2.2;1;;;;;;;25.85;42.63574;1016.672;;;;
2019/09/12 12:06:24;;;;;;;2.7;1.3;;;;;;;25.87;42.81641;1016.677;;;;
2019/09/12 12:08:49;;;;;;;3.4;1.4;;;;;;;25.93;42.44141;1016.649;;;;
2019/09/12 12:11:15;;;;;;;4.6;1.2;;;;;;;25.44;43.02344;1016.669;;;;
2019/09/12 12:13:40;;;;;;;3.1;1.3;;;;;;;25.46;43.35645;1016.646;;;;
2019/09/12 12:16:05;;;;;;;2.4;1;;;;;;;25.36;43.2998;1016.709;;;;
2019/09/12 12:18:30;;;;;;;1.7;1.2;;;;;;;25.37;43.50195;1016.708;;;;
2019/09/12 12:20:55;;;;;;;1.9;1.4;;;;;;;25.56;43.29492;1016.679;;;;
2019/09/12 12:23:20;;;;;;;2.2;1.6;;;;;;;25.61;42.73145;1016.675;;;;
2019/09/12 12:25:45;;;;;;;2.1;1.3;;;;;;;25.26;43.59766;1016.626;;;;
2019/09/12 12:28:10;;;;;;;4.3;1.6;;;;;;;25.02;44.2373;1016.61;;;;
2019/09/12 12:30:36;;;;;;;4.3;1.6;;;;;;;24.93;44.41699;1016.642;;;;
2019/09/12 12:33:01;;;;;;;3.2;1.3;;;;;;;25.26;44.08203;1016.641;;;;
2019/09/12 12:35:27;;;;;;;3.7;1.3;;;;;;;25.31;44.14648;1016.627;;;;
2019/09/12 12:37:52;;;;;;;4.3;1.6;;;;;;;25.3;43.69727;1016.575;;;;
2019/09/12 12:40:17;;;;;;;3.4;1.5;;;;;;;25.32;43.91211;1016.59;;;;
2019/09/12 12:42:42;;;;;;;3.1;1.5;;;;;;;25.49;43.44238;1016.551;;;;
2019/09/12 12:45:07;;;;;;;3.9;1.4;;;;;;;25.49;43.67871;1016.511;;;;
2019/09/12 12:47:32;;;;;;;2.8;1.4;;;;;;;25.8;43.30664;1016.593;;;;
2019/09/12 12:49:58;;;;;;;2.4;1.2;;;;;;;25.16;44.17969;1016.594;;;;
2019/09/12 12:52:23;;;;;;;3;1.5;;;;;;;25.28;44.27441;1016.555;;;;
2019/09/12 12:54:48;;;;;;;2.2;1.3;;;;;;;25.45;43.78223;1016.497;;;;
2019/09/12 12:57:13;;;;;;;2.4;1.3;;;;;;;25.36;44.25879;1016.442;;;;
2019/09/12 12:59:39;;;;;;;4.7;1.4;;;;;;;25.63;43.69336;1016.452;;;;
2019/09/12 13:02:04;;;;;;;3.1;1.5;;;;;;;25.56;43.60352;1016.387;;;;
2019/09/12 13:04:29;;;;;;;3.5;1.4;;;;;;;25.45;44.43359;1016.386;;;;
2019/09/12 13:06:54;;;;;;;5.7;1.7;;;;;;;25.68;43.86328;1016.406;;;;
2019/09/12 13:09:19;;;;;;;2.4;1.4;;;;;;;25.54;43.75488;1016.426;;;;
2019/09/12 13:11:45;;;;;;;4.7;1.5;;;;;;;25.52;43.99023;1016.414;;;;
2019/09/12 13:14:10;;;;;;;2.4;1.4;;;;;;;25.55;44.4082;1016.393;;;;
2019/09/12 13:16:35;;;;;;;3.5;1.5;;;;;;;25.3;45.05859;1016.407;;;;
2019/09/12 13:19:00;;;;;;;3.3;1.3;;;;;;;25.62;44.61621;1016.455;;;;
2019/09/12 13:21:25;;;;;;;3.1;1.5;;;;;;;25.84;43.59473;1016.424;;;;
2019/09/12 13:23:51;;;;;;;5.2;1.5;;;;;;;25.73;43.88184;1016.4;;;;
2019/09/12 13:26:16;;;;;;;3;1.4;;;;;;;25.68;43.91211;1016.389;;;;
2019/09/12 13:28:41;;;;;;;3.7;1.6;;;;;;;25.59;44.63672;1016.395;;;;
2019/09/12 13:31:06;;;;;;;5.3;1.5;;;;;;;25.86;44.0127;1016.34;;;;
2019/09/12 13:33:31;;;;;;;6.1;2;;;;;;;25.76;44.03809;1016.375;;;;
2019/09/12 13:35:56;;;;;;;4.9;1.4;;;;;;;25.67;44.38477;1016.393;;;;
2019/09/12 13:38:21;;;;;;;3.6;1.4;;;;;;;25.44;44.75195;1016.314;;;;
2019/09/12 13:40:47;;;;;;;3.8;1.7;;;;;;;25.44;44.8457;1016.269;;;;
2019/09/12 13:43:12;;;;;;;5.1;1.8;;;;;;;25.47;45.05176;1016.335;;;;
2019/09/12 13:45:37;;;;;;;3.5;2.1;;;;;;;25.52;45.2334;1016.356;;;;
2019/09/12 13:48:02;;;;;;;5.7;1.6;;;;;;;25.54;44.9043;1016.359;;;;
2019/09/12 13:50:28;;;;;;;4.2;1.7;;;;;;;25.57;44.52832;1016.312;;;;
2019/09/12 13:52:53;;;;;;;3.8;1.3;;;;;;;25.55;44.79883;1016.289;;;;
2019/09/12 13:55:18;;;;;;;2.3;1.5;;;;;;;25.62;44.6875;1016.285;;;;
2019/09/12 13:57:43;;;;;;;6.7;1.8;;;;;;;25.51;44.94922;1016.213;;;;
2019/09/12 14:00:08;;;;;;;2.5;1.4;;;;;;;25.5;44.98242;1016.245;;;;
2019/09/12 14:02:34;;;;;;;3.4;1.5;;;;;;;25.2;45.16699;1016.159;;;;
2019/09/12 14:04:59;;;;;;;3.5;1.5;;;;;;;25.25;45.4668;1016.198;;;;
2019/09/12 14:07:24;;;;;;;3.7;1.6;;;;;;;25.53;44.83203;1016.204;;;;
2019/09/12 14:09:49;;;;;;;4.3;1.5;;;;;;;25.83;44.375;1016.231;;;;
2019/09/12 14:12:14;;;;;;;2;1.2;;;;;;;26.08;44.00977;1016.27;;;;
2019/09/12 14:14:39;;;;;;;4.1;1.3;;;;;;;26.24;43.78711;1016.205;;;;